Latest Coastal Weather Observations for South Johnstone

IDQ60701

Issued at 9:43 pm EST Sunday 26 June 2016 (issued every 10 minutes, with the page automatically refreshed every 10 minutes)

About coastal observations | Map of coastal stations | Coastal observations for QLD | Marine services | Other Formats
Station Details ID: 032037 Name: SOUTH JOHNSTONE EXP STN Lat: -17.61 Lon: 146.00 Height: 18.3 m
Data from the previous 72 hours. | See also: Recent months at South Johnstone
Date/Time
EST
Temp
°C
Wind Pressure Rain since
9am
mm
Weather Cloud Vis
km
Sea
Height
m
Swell
Dir  Spd
kts
Gust
kts
hPa Trend Height
m
Period
s
Dir
26/09:30pm 21.9 CALM 0 0 1015.9 - 3.2 - - - - - - -
26/09:00pm 21.9 CALM 0 0 1015.8 - 3.2 - - - - - - -
26/08:30pm 21.9 CALM 0 0 1015.8 - 3.2 - - - - - - -
26/08:00pm 22.0 CALM 0 0 1015.6 - 3.2 - - - - - - -
26/07:30pm 22.0 CALM 0 3 1015.4 - 3.2 - - - - - - -
26/07:00pm 22.0 W 1 4 1015.2 - 3.2 - - - - - - -
26/06:30pm 22.4 CALM 0 0 1015.0 - 1.2 - - - - - - -
26/06:00pm 22.8 CALM 0 0 1014.6 - 0.4 - - - - - - -
26/05:30pm 23.0 S 2 6 1014.5 - 0.4 - - - - - - -
26/05:00pm 23.0 SSE 4 6 1014.2 - 0.4 - - - - - - -
26/04:30pm 23.1 SSE 4 7 1013.9 - 0.4 - - - - - - -
26/04:00pm 23.3 S 3 7 1013.7 - 0.4 - - - - - - -
26/03:30pm 23.4 SSE 5 8 1013.8 - 0.4 - - - - - - -
26/03:00pm 23.3 SSE 7 10 1013.7 - 0.4 - - - - - - -
26/02:30pm 23.6 S 7 12 1014.0 - 0.4 - - - - - - -
26/02:00pm 23.6 S 8 12 1014.2 - 0.4 - - - - - - -
26/01:30pm 23.4 SSE 5 9 1014.6 - 0.4 - - - - - - -
26/01:00pm 23.4 S 8 12 1015.0 - 0.4 - - - - - - -
26/12:30pm 24.3 SSE 7 12 1015.3 - 0.4 - - - - - - -
26/12:00pm 24.6 SSE 4 8 1015.7 - 0.4 - - - - - - -
26/11:30am 23.4 CALM 0 0 1016.1 - 0.4 - - - - - - -
26/11:00am 22.9 SW 3 5 1016.5 - 0.4 - - - - - - -
26/10:30am 22.7 SW 3 5 1016.6 - 0.0 - - - - - - -
26/10:00am 22.7 CALM 0 0 1016.8 - 0.0 - - - - - - -
26/09:30am 22.4 SSW 3 4 1016.8 - 0.0 - - - - - - -
26/09:00am 22.0 CALM 0 0 1016.7 - 2.6 - - - - - - -
26/08:30am 21.6 SW 1 5 1016.6 - 2.6 - - - - - - -
26/08:00am 21.3 CALM 0 0 1016.7 - 2.6 - - - - - - -
26/07:30am 21.3 CALM 0 0 1016.5 - 2.2 - - - - - - -
26/07:00am 21.2 CALM 0 0 1016.1 - 2.2 - - - - - - -
26/06:30am 21.1 CALM 0 3 1015.9 - 2.2 - - - - - - -
26/06:00am 21.2 CALM 0 0 1015.5 - 2.2 - - - - - - -
26/05:30am 21.1 CALM 0 0 1015.3 - 2.0 - - - - - - -
26/05:00am 21.1 CALM 0 0 1015.1 - 2.0 - - - - - - -
26/04:30am 21.0 CALM 0 0 1014.9 - 2.0 - - - - - - -
26/04:00am 21.0 SSW 1 5 1014.7 - 2.0 - - - - - - -
26/03:30am 20.9 SSW 5 6 1014.7 - 2.0 - - - - - - -
26/03:00am 20.9 SW 4 5 1014.7 - 2.0 - - - - - - -
26/02:30am 20.9 SW 1 4 1015.2 - 2.0 - - - - - - -
26/02:00am 20.9 SW 1 4 1015.2 - 2.0 - - - - - - -
26/01:30am 20.8 WSW 1 4 1015.6 - 2.0 - - - - - - -
26/01:00am 20.8 W 2 5 1015.8 - 1.8 - - - - - - -
26/12:30am 20.6 WSW 4 7 1016.1 - 1.8 - - - - - - -
26/12:00am 20.7 WSW 4 5 1016.3 - 1.6 - - - - - - -
 
Date/Time
EST
Temp
°C
Wind Pressure Rain since
9am
mm
Weather Cloud Vis
km
Sea
Height
m
Swell
Dir  Spd
kts
Gust
kts
hPa Trend Height
m
Period
s
Dir
25/11:30pm 20.7 WSW 4 5 1016.7 - 1.4 - - - - - - -
25/11:00pm 20.8 WSW 3 4 1016.9 - 1.4 - - - - - - -
25/10:30pm 20.6 CALM 0 0 1017.0 - 1.0 - - - - - - -
25/10:00pm 20.6 WSW 2 5 1017.1 - 0.6 - - - - - - -
25/09:30pm 20.6 SW 4 6 1017.1 - 0.6 - - - - - - -
25/09:00pm 20.8 SW 4 6 1017.2 - 0.2 - - - - - - -
25/08:30pm 21.0 SW 2 5 1017.2 - 0.2 - - - - - - -
25/08:00pm 21.1 SSW 1 4 1017.0 - 0.0 - - - - - - -
25/07:30pm 21.4 CALM 0 0 1016.7 - 0.0 - - - - - - -
25/07:00pm 21.5 SSW 2 3 1016.5 - 0.0 - - - - - - -
25/06:30pm 22.1 S 4 5 1016.3 - 0.0 - - - - - - -
25/06:00pm 22.5 SSW 4 6 1016.0 - 0.0 - - - - - - -
25/05:30pm 23.2 SSE 2 4 1015.9 - 0.0 - - - - - - -
25/05:00pm 23.5 SSW 5 7 1015.7 - 0.0 - - - - - - -
25/04:30pm 23.7 S 5 7 1015.5 - 0.0 - - - - - - -
25/04:00pm 24.0 S 4 7 1015.4 - 0.0 - - - - - - -
25/03:30pm 24.3 S 6 10 1015.3 - 0.0 - - - - - - -
25/03:00pm 24.5 SSE 6 10 1015.1 - 0.0 - - - - - - -
25/02:30pm 24.9 SSE 6 9 1015.3 - 0.0 - - - - - - -
25/02:00pm 24.9 SSE 7 10 1015.6 - 0.0 - - - - - - -
25/01:30pm 25.1 SSE 6 11 1016.0 - 0.0 - - - - - - -
25/01:00pm 25.5 SSE 7 11 1016.4 - 0.0 - - - - - - -
25/12:30pm 26.0 SSE 7 10 1016.9 - 0.0 - - - - - - -
25/12:00pm 26.0 SSE 7 12 1017.1 - 0.0 - - - - - - -
25/11:30am 26.6 SE 7 11 1017.3 - 0.0 - - - - - - -
25/11:00am 25.5 S 7 12 1017.5 - 0.0 - - - - - - -
25/10:30am 25.3 S 6 10 1017.4 - 0.0 - - - - - - -
25/10:00am 25.1 S 6 10 1017.4 - 0.0 - - - - - - -
25/09:30am 24.8 S 5 8 1017.3 - 0.0 - - - - - - -
25/09:00am 24.7 S 4 7 1016.8 - 0.0 - - - - - - -
25/08:30am 24.6 S 5 10 1016.7 - 0.0 - - - - - - -
25/08:00am 23.4 S 3 6 1016.4 - 0.0 - - - - - - -
25/07:30am 23.2 SSE 4 8 1016.1 - 0.0 - - - - - - -
25/07:00am 23.2 SW 4 7 1015.8 - 0.0 - - - - - - -
25/06:30am 23.4 SSW 6 11 1015.4 - 0.0 - - - - - - -
25/06:00am 21.8 CALM 0 3 1015.0 - 0.0 - - - - - - -
25/05:30am 21.8 CALM 0 0 1015.0 - 0.0 - - - - - - -
25/05:00am 21.8 CALM 0 0 1014.7 - 0.0 - - - - - - -
25/04:30am 21.7 CALM 0 0 1014.5 - 0.0 - - - - - - -
25/04:00am 21.7 CALM 0 0 1014.3 - 0.0 - - - - - - -
25/03:30am 21.7 CALM 0 0 1014.2 - 0.0 - - - - - - -
25/03:00am 21.6 CALM 0 1 1014.3 - 0.0 - - - - - - -
25/02:30am 21.7 CALM 0 0 1014.4 - 0.0 - - - - - - -
25/02:00am 21.7 CALM 0 0 1014.7 - 0.0 - - - - - - -
25/01:30am 21.6 WSW 4 7 1014.9 - 0.0 - - - - - - -
25/01:00am 21.8 CALM 0 0 1015.0 - 0.0 - - - - - - -
25/12:30am 21.8 CALM 0 0 1015.1 - 0.0 - - - - - - -
25/12:00am 21.6 CALM 0 0 1015.2 - 0.0 - - - - - - -
 
Date/Time
EST
Temp
°C
Wind Pressure Rain since
9am
mm
Weather Cloud Vis
km
Sea
Height
m
Swell
Dir  Spd
kts
Gust
kts
hPa Trend Height
m
Period
s
Dir
24/11:30pm 22.0 WSW 2 6 1015.2 - 0.0 - - - - - - -
24/11:00pm 22.3 CALM 0 0 1015.4 - 0.0 - - - - - - -
24/10:30pm 22.6 CALM 0 1 1015.5 - 0.0 - - - - - - -
24/10:00pm 22.8 CALM 0 0 1015.4 - 0.0 - - - - - - -
24/09:30pm 23.2 SW 2 4 1015.3 - 0.0 - - - - - - -
24/09:00pm 23.4 CALM 0 0 1015.2 - 0.0 - - - - - - -
24/08:30pm 23.8 CALM 0 0 1015.3 - 0.0 - - - - - - -
24/08:00pm 23.9 CALM 0 0 1014.9 - 0.0 - - - - - - -
24/07:30pm 24.2 CALM 0 0 1014.7 - 0.0 - - - - - - -
24/07:00pm 24.6 CALM 0 0 1014.5 - 0.0 - - - - - - -
24/06:30pm 25.2 CALM 0 0 1014.1 - 0.0 - - - - - - -
24/06:00pm 25.4 E 4 7 1013.6 - 0.0 - - - - - - -
24/05:30pm 26.0 ESE 5 7 1013.5 - 0.0 - - - - - - -
24/05:00pm 26.5 ESE 4 6 1013.2 - 0.0 - - - - - - -
24/04:30pm 27.0 E 5 8 1013.0 - 0.0 - - - - - - -
24/04:00pm 27.4 ESE 6 9 1012.8 - 0.0 - - - - - - -
24/03:30pm 27.4 ESE 5 7 1012.4 - 0.0 - - - - - - -
24/03:00pm 27.8 E 6 9 1012.3 - 0.0 - - - - - - -
24/02:30pm 28.5 E 6 9 1012.5 - 0.0 - - - - - - -
24/02:00pm 28.5 E 7 11 1012.7 - 0.0 - - - - - - -
24/01:30pm 28.4 ESE 6 9 1012.9 - 0.0 - - - - - - -
24/01:00pm 28.3 E 6 9 1013.2 - 0.0 - - - - - - -
24/12:30pm 29.0 E 5 7 1013.8 - 0.0 - - - - - - -
24/12:00pm 29.3 SSE 4 5 1014.2 - 0.0 - - - - - - -
24/11:30am 29.0 W 1 4 1014.9 - 0.0 - - - - - - -
24/11:00am 28.5 SSW 2 6 1015.3 - 0.0 - - - - - - -
24/10:30am 27.7 SW 4 5 1015.4 - 0.0 - - - - - - -
24/10:00am 27.7 NE 2 4 1015.5 - 0.0 - - - - - - -
24/09:30am 26.7 WSW 2 5 1015.7 - 0.0 - - - - - - -
24/09:00am 25.2 SW 4 5 1015.3 - 0.6 - - - - - - -
24/08:30am 24.0 WSW 3 6 1015.3 - 0.6 - - - - - - -
24/08:00am 22.7 CALM 0 0 1014.9 - 0.6 - - - - - - -
24/07:30am 22.3 CALM 0 0 1014.5 - 0.6 - - - - - - -
24/07:00am 22.1 CALM 0 0 1014.1 - 0.6 - - - - - - -
24/06:30am 21.9 CALM 0 0 1013.6 - 0.6 - - - - - - -
24/06:00am 21.8 CALM 0 0 1013.2 - 0.6 - - - - - - -
24/05:30am 22.0 SW 2 4 1013.2 - 0.6 - - - - - - -
24/05:00am 22.0 WSW 4 6 1013.2 - 0.6 - - - - - - -
24/04:30am 22.1 CALM 0 0 1013.2 - 0.6 - - - - - - -
24/04:00am 22.4 CALM 0 0 1013.3 - 0.6 - - - - - - -
24/03:30am 22.5 SSW 3 5 1013.2 - 0.6 - - - - - - -
24/03:00am 22.7 CALM 0 0 1013.1 - 0.6 - - - - - - -
24/02:30am 22.8 CALM 0 0 1013.3 - 0.6 - - - - - - -
24/02:00am 22.8 W 1 4 1013.6 - 0.6 - - - - - - -
24/01:30am 22.9 WSW 1 5 1013.8 - 0.6 - - - - - - -
24/01:00am 23.0 CALM 0 0 1014.1 - 0.6 - - - - - - -
24/12:30am 23.0 CALM 0 3 1014.1 - 0.6 - - - - - - -
24/12:00am 23.0 WSW 4 5 1014.1 - 0.6 - - - - - - -
 
Date/Time
EST
Temp
°C
Wind Pressure Rain since
9am
mm
Weather Cloud Vis
km
Sea
Height
m
Swell
Dir  Spd
kts
Gust
kts
hPa Trend Height
m
Period
s
Dir
23/11:30pm 23.0 WSW 5 6 1014.3 - 0.6 - - - - - - -
23/11:00pm 23.0 WSW 4 5 1014.5 - 0.6 - - - - - - -
23/10:30pm 23.1 WSW 4 6 1014.5 - 0.6 - - - - - - -
23/10:00pm 23.1 WSW 5 6 1014.3 - 0.6 - - - - - - -

Other Formats:

Comma delimited format used in spreadsheet applications
http://www.bom.gov.au/fwo/IDQ60701/IDQ60701.95292.axf

JavaScript Object Notation format (JSON) in row-major order
http://www.bom.gov.au/fwo/IDQ60701/IDQ60701.95292.json